Royal Princess — ZCEI3 — position and weather

sailwx.info

Track history (hours):
 
Tides and Currents Weather Stations Pressure Air Temp Water Temp Dewpoint Dewpoint Depression Visibility Wind Speed Wind Dir Waves Ship Positions

Royal Princess

Last reported at 2018-Aug-16 08:28 UTC. Time now 2018-Aug-16 08:44 UTC.
Position N 49°29' E 000°07'.

Length 330 m; draft 8.5 m.

Type: Passenger vessel. MMSI: 310661000.

Date/timePositionNaut miles runAvg speedWind from/ knotsBaromVisibWave heightAir tempDewpointWater temp
2018-Aug-16 08:28N 49°29' E 000°07'0 0.0
2018-Aug-16 08:00N 49°29' E 000°07'0 0.0
2018-Aug-16 07:29N 49°29' E 000°07'0 0.0
2018-Aug-16 06:59N 49°29' E 000°07'0 0.0
2018-Aug-16 06:29N 49°29' E 000°07'0 0.0
2018-Aug-16 05:58N 49°29' E 000°07'0 0.0
2018-Aug-16 05:28N 49°29' E 000°07'0 0.0
2018-Aug-16 04:58N 49°29' E 000°07'0 0.6
2018-Aug-16 04:30N 49°29' E 000°06'4 8.8
2018-Aug-16 04:00N 49°30' W 000°00'510.6
2018-Aug-16 03:30N 49°32' W 000°08'5 9.2
2018-Aug-16 03:01N 49°33' W 000°15'714.4
2018-Aug-16 02:30N 49°39' W 000°20'816.6
2018-Aug-16 02:01N 49°47' W 000°24'816.1
2018-Aug-16 01:30N 49°54' W 000°18'815.6
2018-Aug-16 01:00N 50°01' W 000°12'715.0
2018-Aug-16 00:30N 50°08' W 000°08'814.9
2018-Aug-16 00:00N 50°16' W 000°07'915.1
2018-Aug-15 23:25N 50°24' W 000°06'512.6
2018-Aug-15 23:00N 50°28' E 000°01'714.0
2018-Aug-15 22:30N 50°30' E 000°11'917.3
2018-Aug-15 21:58N 50°32' E 000°25'919.0
2018-Aug-15 21:30N 50°35' E 000°38'1020.0
2018-Aug-15 21:00N 50°41' E 000°51'1020.2
2018-Aug-15 20:30N 50°47' E 001°04'1020.1
2018-Aug-15 20:00N 50°53' E 001°17'1019.7
2018-Aug-15 19:30N 51°01' E 001°26'918.6
2018-Aug-15 19:00N 51°08' E 001°37'815.8
2018-Aug-15 18:30N 51°14' E 001°44'917.4
2018-Aug-15 18:00N 51°21' E 001°51'917.1
2018-Aug-15 17:30N 51°28' E 001°59'817.0
2018-Aug-15 17:00N 51°35' E 002°08'816.6
2018-Aug-15 16:30N 51°43' E 002°10'917.0
2018-Aug-15 16:00N 51°51' E 002°12'816.1
2018-Aug-15 15:30N 51°59' E 002°14'814.4
2018-Aug-15 14:58N 52°07' E 002°16'4816.6
2018-Aug-15 12:04N 52°55' E 002°27'4117.3
2018-Aug-15 09:43N 53°28' E 001°47'8021.5
2018-Aug-15 06:00N 54°36' E 000°36'5718.9 210 / 281012.110.8 17.515.619.1
2018-Aug-15 03:00N 55°18' W 000°30'15 7.5 230 / 281011.3 5.4 17.015.318.3
2018-Aug-15 00:57N 55°30' W 000°48'716.5
2018-Aug-15 00:30N 55°35' W 000°56'816.1
2018-Aug-15 00:01N 55°41' W 001°06'816.2
2018-Aug-14 23:31N 55°47' W 001°16'816.1
2018-Aug-14 23:01N 55°51' W 001°27'817.0
2018-Aug-14 22:31N 55°56' W 001°41'816.7
2018-Aug-14 22:01N 55°60' W 001°54'018.5
2018-Aug-14 22:00N 56°00' W 001°54'816.7 220 / 161010.610.8 16.814.015.0
2018-Aug-14 21:30N 56°03' W 002°07'1117.0
2018-Aug-14 20:53N 56°06' W 002°26'717.4
2018-Aug-14 20:31N 56°06' W 002°37'918.1
2018-Aug-14 20:01N 56°05' W 002°53'815.7
2018-Aug-14 19:30N 56°03' W 003°07'612.8
2018-Aug-14 19:00N 56°01' W 003°18'3 1.7
2018-Aug-14 17:28N 56°00' W 003°23'0 0.0
2018-Aug-14 17:00N 56°00' W 003°23'0 0.0
2018-Aug-14 16:14N 56°00' W 003°23'0 0.0
2018-Aug-14 14:05N 56°00' W 003°23'0 0.1
2018-Aug-14 13:59N 56°00' W 003°23'0 0.1
2018-Aug-14 13:30N 56°00' W 003°23'0 0.0
2018-Aug-14 12:49N 56°00' W 003°23'0 0.0
2018-Aug-14 12:23N 56°00' W 003°23'0 0.0
2018-Aug-14 11:48N 56°00' W 003°23'0 0.0
2018-Aug-14 09:41N 56°00' W 003°23'0 0.0
2018-Aug-14 09:29N 56°00' W 003°23'0 0.0
2018-Aug-14 08:47N 56°00' W 003°23'0 0.0
2018-Aug-14 08:25N 56°00' W 003°23'0 0.0
2018-Aug-14 07:49N 56°00' W 003°23'0 0.0
2018-Aug-14 07:27N 56°00' W 003°23'0 0.0
2018-Aug-14 06:25N 56°00' W 003°23'0 0.0
2018-Aug-14 06:00N 56°00' W 003°23'2 3.3
2018-Aug-14 05:26N 56°01' W 003°20'612.3
2018-Aug-14 04:56N 56°03' W 003°09'410.4
2018-Aug-14 04:30N 56°03' W 003°01'612.1
2018-Aug-14 04:01N 56°06' W 002°51'714.5
2018-Aug-14 03:31N 56°08' W 002°39'816.5
2018-Aug-14 03:00N 56°13' W 002°26'917.0
2018-Aug-14 02:28N 56°20' W 002°17'1117.3
2018-Aug-14 01:49N 56°30' W 002°06'3317.9
2018-Aug-13 23:57N 57°01' W 001°45'1020.2
2018-Aug-13 23:29N 57°11' W 001°42'1020.1
2018-Aug-13 22:59N 57°21' W 001°40'1120.0
2018-Aug-13 22:27N 57°31' W 001°39'510.8
2018-Aug-13 22:00N 57°36' W 001°42'56 2.5 160 / 101009.410.8 14.012.215.5
2018-Aug-13 00:06N 58°23' W 002°38'317.9
2018-Aug-12 23:54N 58°26' W 002°41'718.3
2018-Aug-12 23:30N 58°33' W 002°47'1019.5
2018-Aug-12 23:00N 58°40' W 002°59'1020.0
2018-Aug-12 22:30N 58°43' W 003°17'918.5
2018-Aug-12 22:00N 58°44' W 003°35'135206.2
2018-Aug-12 22:00N 58°42' W 004°00'15338.2 130 / 221010.210.8 14.012.215.1
2018-Aug-12 18:00N 56°18' W 005°36'58 6.2 110 / 251008.010.8 14.511.715.2
2018-Aug-12 08:35N 55°56' W 007°13'116.7
2018-Aug-12 08:30N 55°55' W 007°12'816.6
2018-Aug-12 08:00N 55°48' W 007°04'815.7
2018-Aug-12 07:30N 55°42' W 006°57'815.2
2018-Aug-12 07:00N 55°37' W 006°46'816.6
2018-Aug-12 06:30N 55°32' W 006°34'917.2
2018-Aug-12 06:01N 55°28' W 006°21'918.2
2018-Aug-12 05:30N 55°25' W 006°06'1019.3
2018-Aug-12 05:00N 55°18' W 005°54'918.5
2018-Aug-12 04:30N 55°14' W 005°39'2019.5
2018-Aug-12 03:29N 55°22' W 005°06'1717.5
2018-Aug-12 02:31N 55°38' W 004°59'218.4
2018-Aug-12 02:24N 55°40' W 004°59'716.8
2018-Aug-12 02:00N 55°47' W 004°58'713.6
2018-Aug-12 01:30N 55°54' W 004°56'612.4
2018-Aug-12 01:00N 55°58' W 004°49'2 3.4
2018-Aug-12 00:29N 55°57' W 004°46'0 0.0
2018-Aug-11 23:59N 55°57' W 004°46'0 0.0
2018-Aug-11 23:30N 55°57' W 004°46'0 0.0
2018-Aug-11 22:58N 55°57' W 004°46'0 0.0
2018-Aug-11 22:25N 55°57' W 004°46'0 0.0
2018-Aug-11 21:52N 55°57' W 004°46'0 0.0
2018-Aug-11 21:30N 55°57' W 004°46'0 0.0
2018-Aug-11 21:00N 55°57' W 004°46'0 0.0
2018-Aug-11 20:30N 55°57' W 004°46'0 0.0
2018-Aug-11 20:00N 55°57' W 004°46'0 0.0
2018-Aug-11 19:27N 55°57' W 004°46'0 0.0
2018-Aug-11 18:57N 55°57' W 004°46'0 0.0
2018-Aug-11 18:30N 55°57' W 004°46'0 0.0
2018-Aug-11 18:00N 55°57' W 004°46'0 0.0
2018-Aug-11 17:30N 55°57' W 004°46'0 0.0
2018-Aug-11 17:00N 55°57' W 004°46'0 0.0
2018-Aug-11 16:30N 55°57' W 004°46'0 0.0
2018-Aug-11 16:01N 55°57' W 004°46'0 0.0
2018-Aug-11 15:28N 55°57' W 004°46'0 0.0
2018-Aug-11 15:00N 55°57' W 004°46'0 0.0
2018-Aug-11 14:29N 55°57' W 004°46'0 0.0
2018-Aug-11 13:59N 55°57' W 004°46'0 0.0
2018-Aug-11 13:29N 55°57' W 004°46'0 0.0
2018-Aug-11 12:57N 55°57' W 004°46'0 0.0
2018-Aug-11 12:30N 55°57' W 004°46'0 0.0
2018-Aug-11 12:00N 55°57' W 004°46'0 0.0
2018-Aug-11 11:28N 55°57' W 004°46'0 0.0
2018-Aug-11 10:58N 55°57' W 004°46'0 0.0
2018-Aug-11 10:31N 55°57' W 004°46'0 0.0
2018-Aug-11 10:00N 55°57' W 004°46'0 0.0
2018-Aug-11 09:30N 55°57' W 004°46'0 0.0
2018-Aug-11 09:00N 55°57' W 004°46'0 0.0
2018-Aug-11 08:30N 55°57' W 004°46'0 0.0
2018-Aug-11 08:00N 55°57' W 004°46'0 0.0
2018-Aug-11 07:30N 55°57' W 004°46'0 0.0
2018-Aug-11 07:00N 55°57' W 004°46'0 0.0
2018-Aug-11 06:30N 55°57' W 004°46'0 0.0
2018-Aug-11 06:00N 55°57' W 004°46'0 0.6
2018-Aug-11 05:30N 55°58' W 004°46'4 8.2
2018-Aug-11 05:00N 55°57' W 004°53'714.2
2018-Aug-11 04:29N 55°50' W 004°57'713.8
2018-Aug-11 04:00N 55°43' W 004°59'912.6
2018-Aug-11 03:16N 55°34' W 004°59'1012.7
2018-Aug-11 02:28N 55°24' W 005°02'613.1
2018-Aug-11 01:59N 55°20' W 005°10'913.4
2018-Aug-11 01:20N 55°14' W 005°21'410.7
2018-Aug-11 00:57N 55°12' W 005°28'4 9.6
2018-Aug-11 00:30N 55°10' W 005°34'510.2
2018-Aug-11 00:00N 55°05' W 005°39'611.4
2018-Aug-10 23:30N 55°00' W 005°34'611.8
2018-Aug-10 23:00N 54°57' W 005°25'3 6.3
2018-Aug-10 22:28N 54°54' W 005°23'4 9.2
2018-Aug-10 22:00N 54°51' W 005°28'510.2
2018-Aug-10 21:30N 54°47' W 005°33'510.3
2018-Aug-10 21:00N 54°43' W 005°39'5 9.6
2018-Aug-10 20:30N 54°41' W 005°47'5 9.9
2018-Aug-10 19:59N 54°38' W 005°53'1 1.9
2018-Aug-10 19:30N 54°37' W 005°54'0 0.0
2018-Aug-10 18:59N 54°37' W 005°54'0 0.0
2018-Aug-10 18:29N 54°37' W 005°54'0 0.0
2018-Aug-10 17:52N 54°37' W 005°54'0 0.0
2018-Aug-10 17:29N 54°37' W 005°54'0 0.0
2018-Aug-10 16:59N 54°37' W 005°54'0 0.0
2018-Aug-10 16:28N 54°37' W 005°54'0 0.0
2018-Aug-10 16:00N 54°37' W 005°54'0 0.0
2018-Aug-10 15:27N 54°37' W 005°54'0 0.0
2018-Aug-10 15:00N 54°37' W 005°54'0 0.0
2018-Aug-10 14:29N 54°37' W 005°54'0 0.0
2018-Aug-10 13:59N 54°37' W 005°54'0 0.0
2018-Aug-10 13:30N 54°37' W 005°54'0 0.0
2018-Aug-10 13:00N 54°37' W 005°54'0 0.0
2018-Aug-10 12:28N 54°37' W 005°54'0 0.0
2018-Aug-10 12:00N 54°37' W 005°54'0 0.0
2018-Aug-10 11:29N 54°37' W 005°54'0 0.0
2018-Aug-10 10:59N 54°37' W 005°54'0 0.0
2018-Aug-10 10:25N 54°37' W 005°54'0 0.0
2018-Aug-10 09:58N 54°37' W 005°54'0 0.0
2018-Aug-10 09:28N 54°37' W 005°54'0 0.0
2018-Aug-10 09:00N 54°37' W 005°54'0 0.0
2018-Aug-10 08:30N 54°37' W 005°54'0 0.2
2018-Aug-10 08:00N 54°37' W 005°54'1 1.4
2018-Aug-10 07:28N 54°38' W 005°53'4 7.8
2018-Aug-10 07:00N 54°40' W 005°50'5 9.1
2018-Aug-10 06:31N 54°43' W 005°43'510.9
2018-Aug-10 06:00N 54°44' W 005°33'611.3
2018-Aug-10 05:30N 54°42' W 005°24'611.8
2018-Aug-10 05:01N 54°37' W 005°19'612.8
2018-Aug-10 04:30N 54°31' W 005°15'712.6
2018-Aug-10 03:59N 54°25' W 005°11'612.7
2018-Aug-10 03:29N 54°18' W 005°08'612.2
2018-Aug-10 03:00N 54°13' W 005°09'6011.9
2018-Aug-09 21:57N 53°35' W 003°50'715.3
2018-Aug-09 21:30N 53°34' W 003°38'714.3
2018-Aug-09 21:00N 53°33' W 003°26'611.5
2018-Aug-09 20:30N 53°32' W 003°17'510.0
2018-Aug-09 20:00N 53°32' W 003°08'612.6
2018-Aug-09 19:29N 53°27' W 003°01'2 4.8
2018-Aug-09 19:00N 53°25' W 003°00'0 0.0
2018-Aug-09 18:30N 53°25' W 003°00'0 0.0
2018-Aug-09 17:57N 53°25' W 003°00'0 0.0
2018-Aug-09 17:30N 53°25' W 003°00'0 0.0
2018-Aug-09 17:00N 53°25' W 003°00'0 0.0
2018-Aug-09 16:30N 53°25' W 003°00'0 0.0
2018-Aug-09 16:00N 53°25' W 003°00'0 0.0
2018-Aug-09 15:30N 53°25' W 003°00'0 0.0
2018-Aug-09 14:51N 53°25' W 003°00'0 0.0
2018-Aug-09 14:30N 53°25' W 003°00'0 0.0
2018-Aug-09 13:59N 53°25' W 003°00'0 0.0
2018-Aug-09 13:30N 53°25' W 003°00'0 0.0
2018-Aug-09 13:00N 53°25' W 003°00'0 0.0
2018-Aug-09 12:27N 53°25' W 003°00'0 0.0
2018-Aug-09 12:00N 53°25' W 003°00'0 0.0
2018-Aug-09 11:29N 53°25' W 003°00'0 0.0
2018-Aug-09 10:56N 53°25' W 003°00'0 0.0
2018-Aug-09 10:30N 53°25' W 003°00'0 0.0
2018-Aug-09 09:59N 53°25' W 003°00'0 0.0
2018-Aug-09 09:21N 53°25' W 003°00'0 0.0
2018-Aug-09 08:59N 53°25' W 003°00'0 0.0
2018-Aug-09 08:29N 53°25' W 003°00'0 0.0
2018-Aug-09 07:56N 53°25' W 003°00'0 0.0
2018-Aug-09 07:23N 53°25' W 003°00'0 0.0
2018-Aug-09 07:00N 53°25' W 003°00'0 0.0
2018-Aug-09 06:20N 53°25' W 003°00'0 0.2
2018-Aug-09 06:00N 53°25' W 003°00'2 3.3
2018-Aug-09 05:30N 53°26' W 003°01'611.2
2018-Aug-09 05:00N 53°31' W 003°06'4 8.6
2018-Aug-09 04:30N 53°31' W 003°13'4 8.4
2018-Aug-09 04:00N 53°31' W 003°20'4 8.1
2018-Aug-09 03:30N 53°31' W 003°27'510.4
2018-Aug-09 03:00N 53°30' W 003°36'510.3
2018-Aug-09 02:30N 53°31' W 003°44'714.7
2018-Aug-09 02:00N 53°31' W 003°57'7417.4
2018-Aug-08 21:45N 53°21' W 006°00'410.8
2018-Aug-08 21:24N 53°20' W 006°06'4 9.0
2018-Aug-08 21:00N 53°21' W 006°12'13 1.0
2018-Aug-08 07:50N 53°23' W 005°52'25 9.4
2018-Aug-08 05:09N 53°01' W 005°33'214.1
2018-Aug-08 05:00N 52°58' W 005°34'714.5
2018-Aug-08 04:30N 52°52' W 005°36'714.5
2018-Aug-08 04:00N 52°44' W 005°39'1014.1
2018-Aug-08 03:16N 52°34' W 005°42'513.7
2018-Aug-08 02:56N 52°30' W 005°43'713.6
2018-Aug-08 02:26N 52°23' W 005°45'813.6
2018-Aug-08 01:53N 52°16' W 005°47'615.2
2018-Aug-08 01:30N 52°10' W 005°49'815.6
2018-Aug-08 00:57N 52°03' W 005°56'715.0
2018-Aug-08 00:30N 51°57' W 006°03'815.3
2018-Aug-08 00:00N 51°55' W 006°15'815.3
2018-Aug-07 23:30N 51°52' W 006°26'815.6
2018-Aug-07 23:00N 51°50' W 006°38'815.9
2018-Aug-07 22:30N 51°48' W 006°51'815.7
2018-Aug-07 22:00N 51°46' W 007°03'816.3
2018-Aug-07 21:30N 51°45' W 007°16'816.2
2018-Aug-07 21:00N 51°44' W 007°29'816.1
2018-Aug-07 20:30N 51°43' W 007°42'816.3
2018-Aug-07 20:00N 51°41' W 007°55'816.3
2018-Aug-07 19:30N 51°40' W 008°08'714.4
2018-Aug-07 19:00N 51°46' W 008°15'510.0
2018-Aug-07 18:31N 51°51' W 008°16'1 2.5
2018-Aug-07 17:59N 51°51' W 008°18'0 0.0
2018-Aug-07 17:29N 51°51' W 008°18'0 0.0
2018-Aug-07 16:59N 51°51' W 008°18'0 0.0
2018-Aug-07 16:29N 51°51' W 008°18'0 0.0
2018-Aug-07 15:59N 51°51' W 008°18'0 0.0
2018-Aug-07 15:31N 51°51' W 008°18'0 0.0
2018-Aug-07 14:58N 51°51' W 008°18'0 0.0
2018-Aug-07 14:30N 51°51' W 008°18'0 0.0
2018-Aug-07 14:00N 51°51' W 008°18'0 0.0
2018-Aug-07 13:29N 51°51' W 008°18'0 0.0
2018-Aug-07 12:59N 51°51' W 008°18'0 0.0
2018-Aug-07 12:29N 51°51' W 008°18'0 0.0
2018-Aug-07 11:57N 51°51' W 008°18'0 0.0
2018-Aug-07 11:28N 51°51' W 008°18'0 0.0
2018-Aug-07 11:00N 51°51' W 008°18'0 0.0
2018-Aug-07 10:30N 51°51' W 008°18'0 0.0
2018-Aug-07 10:00N 51°51' W 008°18'0 0.0
2018-Aug-07 09:30N 51°51' W 008°18'0 0.0
2018-Aug-07 08:58N 51°51' W 008°18'0 0.0
2018-Aug-07 08:30N 51°51' W 008°18'0 0.0
2018-Aug-07 08:00N 51°51' W 008°18'0 0.6
2018-Aug-07 07:30N 51°51' W 008°18'2 3.6
2018-Aug-07 07:00N 51°50' W 008°16'611.8
2018-Aug-07 06:30N 51°44' W 008°15'815.0
2018-Aug-07 06:00N 51°38' W 008°06'816.8
2018-Aug-07 05:30N 51°33' W 007°56'816.7
2018-Aug-07 05:00N 51°27' W 007°46'916.9
2018-Aug-07 04:30N 51°21' W 007°36'9319.8
2018-Aug-06 23:48N 50°14' W 005°55'721.5
2018-Aug-06 23:30N 50°07' W 005°55'1120.0
2018-Aug-06 22:56N 49°56' W 005°51'920.6
2018-Aug-06 22:28N 49°52' W 005°38'1320.8
2018-Aug-06 21:51N 49°49' W 005°19'820.3
2018-Aug-06 21:28N 49°46' W 005°07'920.2
2018-Aug-06 21:00N 49°44' W 004°53'1020.2
2018-Aug-06 20:31N 49°42' W 004°38'1020.1
2018-Aug-06 20:00N 49°39' W 004°23'1020.4
2018-Aug-06 19:30N 49°37' W 004°08'1020.7
2018-Aug-06 19:00N 49°35' W 003°52'1121.0
2018-Aug-06 18:30N 49°32' W 003°36'1020.9
2018-Aug-06 18:00N 49°30' W 003°21'1021.0
2018-Aug-06 17:30N 49°27' W 003°05'1020.8
2018-Aug-06 17:01N 49°25' W 002°50'1020.4
2018-Aug-06 16:30N 49°24' W 002°34'5 9.5
2018-Aug-06 16:00N 49°28' W 002°30'0 0.3
2018-Aug-06 15:28N 49°28' W 002°30'0 0.0
2018-Aug-06 15:00N 49°28' W 002°30'0 0.0
2018-Aug-06 14:30N 49°28' W 002°30'0 0.0
2018-Aug-06 13:59N 49°28' W 002°30'0 0.0
2018-Aug-06 13:30N 49°28' W 002°30'0 0.0
2018-Aug-06 13:00N 49°28' W 002°30'0 0.0
2018-Aug-06 12:30N 49°28' W 002°30'0 0.0
2018-Aug-06 12:00N 49°28' W 002°30'0 0.1
2018-Aug-06 11:30N 49°28' W 002°30'0 0.0
2018-Aug-06 11:00N 49°28' W 002°30'0 0.0
2018-Aug-06 10:30N 49°28' W 002°30'0 0.1
2018-Aug-06 10:00N 49°28' W 002°30'0 0.0
2018-Aug-06 09:30N 49°28' W 002°30'0 0.0
2018-Aug-06 09:00N 49°28' W 002°30'0 0.1
2018-Aug-06 08:30N 49°28' W 002°30'  
Track history (hours):
 
Tides and Currents Weather Stations Pressure Air Temp Water Temp Dewpoint Dewpoint Depression Visibility Wind Speed Wind Dir Waves Ship Positions

Royal Princess

Last reported at 2018-Aug-16 08:28 UTC. Time now 2018-Aug-16 08:44 UTC.
Position N 49°29' E 000°07'.

Length 330 m; draft 8.5 m.

Type: Passenger vessel. MMSI: 310661000.

Date/timePositionNaut miles runAvg speedWind from/ knotsBaromVisibWave heightAir tempDewpointWater temp
2018-Aug-16 08:28N 49°29' E 000°07'0 0.0
2018-Aug-16 08:00N 49°29' E 000°07'0 0.0
2018-Aug-16 07:29N 49°29' E 000°07'0 0.0
2018-Aug-16 06:59N 49°29' E 000°07'0 0.0
2018-Aug-16 06:29N 49°29' E 000°07'0 0.0
2018-Aug-16 05:58N 49°29' E 000°07'0 0.0
2018-Aug-16 05:28N 49°29' E 000°07'0 0.0
2018-Aug-16 04:58N 49°29' E 000°07'0 0.6
2018-Aug-16 04:30N 49°29' E 000°06'4 8.8
2018-Aug-16 04:00N 49°30' W 000°00'510.6
2018-Aug-16 03:30N 49°32' W 000°08'5 9.2
2018-Aug-16 03:01N 49°33' W 000°15'714.4
2018-Aug-16 02:30N 49°39' W 000°20'816.6
2018-Aug-16 02:01N 49°47' W 000°24'816.1
2018-Aug-16 01:30N 49°54' W 000°18'815.6
2018-Aug-16 01:00N 50°01' W 000°12'715.0
2018-Aug-16 00:30N 50°08' W 000°08'814.9
2018-Aug-16 00:00N 50°16' W 000°07'915.1
2018-Aug-15 23:25N 50°24' W 000°06'512.6
2018-Aug-15 23:00N 50°28' E 000°01'714.0
2018-Aug-15 22:30N 50°30' E 000°11'917.3
2018-Aug-15 21:58N 50°32' E 000°25'919.0
2018-Aug-15 21:30N 50°35' E 000°38'1020.0
2018-Aug-15 21:00N 50°41' E 000°51'1020.2
2018-Aug-15 20:30N 50°47' E 001°04'1020.1
2018-Aug-15 20:00N 50°53' E 001°17'1019.7
2018-Aug-15 19:30N 51°01' E 001°26'918.6
2018-Aug-15 19:00N 51°08' E 001°37'815.8
2018-Aug-15 18:30N 51°14' E 001°44'917.4
2018-Aug-15 18:00N 51°21' E 001°51'917.1
2018-Aug-15 17:30N 51°28' E 001°59'817.0
2018-Aug-15 17:00N 51°35' E 002°08'816.6
2018-Aug-15 16:30N 51°43' E 002°10'917.0
2018-Aug-15 16:00N 51°51' E 002°12'816.1
2018-Aug-15 15:30N 51°59' E 002°14'814.4
2018-Aug-15 14:58N 52°07' E 002°16'4816.6
2018-Aug-15 12:04N 52°55' E 002°27'4117.3
2018-Aug-15 09:43N 53°28' E 001°47'8021.5
2018-Aug-15 06:00N 54°36' E 000°36'5718.9 210 / 281012.110.8 17.515.619.1
2018-Aug-15 03:00N 55°18' W 000°30'15 7.5 230 / 281011.3 5.4 17.015.318.3
2018-Aug-15 00:57N 55°30' W 000°48'716.5
2018-Aug-15 00:30N 55°35' W 000°56'816.1
2018-Aug-15 00:01N 55°41' W 001°06'816.2
2018-Aug-14 23:31N 55°47' W 001°16'816.1
2018-Aug-14 23:01N 55°51' W 001°27'817.0
2018-Aug-14 22:31N 55°56' W 001°41'816.7
2018-Aug-14 22:01N 55°60' W 001°54'018.5
2018-Aug-14 22:00N 56°00' W 001°54'816.7 220 / 161010.610.8 16.814.015.0
2018-Aug-14 21:30N 56°03' W 002°07'1117.0
2018-Aug-14 20:53N 56°06' W 002°26'717.4
2018-Aug-14 20:31N 56°06' W 002°37'918.1
2018-Aug-14 20:01N 56°05' W 002°53'815.7
2018-Aug-14 19:30N 56°03' W 003°07'612.8
2018-Aug-14 19:00N 56°01' W 003°18'3 1.7
2018-Aug-14 17:28N 56°00' W 003°23'0 0.0
2018-Aug-14 17:00N 56°00' W 003°23'0 0.0
2018-Aug-14 16:14N 56°00' W 003°23'0 0.0
2018-Aug-14 14:05N 56°00' W 003°23'0 0.1
2018-Aug-14 13:59N 56°00' W 003°23'0 0.1
2018-Aug-14 13:30N 56°00' W 003°23'0 0.0
2018-Aug-14 12:49N 56°00' W 003°23'0 0.0
2018-Aug-14 12:23N 56°00' W 003°23'0 0.0
2018-Aug-14 11:48N 56°00' W 003°23'0 0.0
2018-Aug-14 09:41N 56°00' W 003°23'0 0.0
2018-Aug-14 09:29N 56°00' W 003°23'0 0.0
2018-Aug-14 08:47N 56°00' W 003°23'0 0.0
2018-Aug-14 08:25N 56°00' W 003°23'0 0.0
2018-Aug-14 07:49N 56°00' W 003°23'0 0.0
2018-Aug-14 07:27N 56°00' W 003°23'0 0.0
2018-Aug-14 06:25N 56°00' W 003°23'0 0.0
2018-Aug-14 06:00N 56°00' W 003°23'2 3.3
2018-Aug-14 05:26N 56°01' W 003°20'612.3
2018-Aug-14 04:56N 56°03' W 003°09'410.4
2018-Aug-14 04:30N 56°03' W 003°01'612.1
2018-Aug-14 04:01N 56°06' W 002°51'714.5
2018-Aug-14 03:31N 56°08' W 002°39'816.5
2018-Aug-14 03:00N 56°13' W 002°26'917.0
2018-Aug-14 02:28N 56°20' W 002°17'1117.3
2018-Aug-14 01:49N 56°30' W 002°06'3317.9
2018-Aug-13 23:57N 57°01' W 001°45'1020.2
2018-Aug-13 23:29N 57°11' W 001°42'1020.1
2018-Aug-13 22:59N 57°21' W 001°40'1120.0
2018-Aug-13 22:27N 57°31' W 001°39'510.8
2018-Aug-13 22:00N 57°36' W 001°42'56 2.5 160 / 101009.410.8 14.012.215.5
2018-Aug-13 00:06N 58°23' W 002°38'317.9
2018-Aug-12 23:54N 58°26' W 002°41'718.3
2018-Aug-12 23:30N 58°33' W 002°47'1019.5
2018-Aug-12 23:00N 58°40' W 002°59'1020.0
2018-Aug-12 22:30N 58°43' W 003°17'918.5
2018-Aug-12 22:00N 58°44' W 003°35'135206.2
2018-Aug-12 22:00N 58°42' W 004°00'15338.2 130 / 221010.210.8 14.012.215.1
2018-Aug-12 18:00N 56°18' W 005°36'58 6.2 110 / 251008.010.8 14.511.715.2
2018-Aug-12 08:35N 55°56' W 007°13'116.7
2018-Aug-12 08:30N 55°55' W 007°12'816.6
2018-Aug-12 08:00N 55°48' W 007°04'815.7
2018-Aug-12 07:30N 55°42' W 006°57'815.2
2018-Aug-12 07:00N 55°37' W 006°46'816.6
2018-Aug-12 06:30N 55°32' W 006°34'917.2
2018-Aug-12 06:01N 55°28' W 006°21'918.2
2018-Aug-12 05:30N 55°25' W 006°06'1019.3
2018-Aug-12 05:00N 55°18' W 005°54'918.5
2018-Aug-12 04:30N 55°14' W 005°39'2019.5
2018-Aug-12 03:29N 55°22' W 005°06'1717.5
2018-Aug-12 02:31N 55°38' W 004°59'218.4
2018-Aug-12 02:24N 55°40' W 004°59'716.8
2018-Aug-12 02:00N 55°47' W 004°58'713.6
2018-Aug-12 01:30N 55°54' W 004°56'612.4
2018-Aug-12 01:00N 55°58' W 004°49'2 3.4
2018-Aug-12 00:29N 55°57' W 004°46'0 0.0
2018-Aug-11 23:59N 55°57' W 004°46'0 0.0
2018-Aug-11 23:30N 55°57' W 004°46'0 0.0
2018-Aug-11 22:58N 55°57' W 004°46'0 0.0
2018-Aug-11 22:25N 55°57' W 004°46'0 0.0
2018-Aug-11 21:52N 55°57' W 004°46'0 0.0
2018-Aug-11 21:30N 55°57' W 004°46'0 0.0
2018-Aug-11 21:00N 55°57' W 004°46'0 0.0
2018-Aug-11 20:30N 55°57' W 004°46'0 0.0
2018-Aug-11 20:00N 55°57' W 004°46'0 0.0
2018-Aug-11 19:27N 55°57' W 004°46'0 0.0
2018-Aug-11 18:57N 55°57' W 004°46'0 0.0
2018-Aug-11 18:30N 55°57' W 004°46'0 0.0
2018-Aug-11 18:00N 55°57' W 004°46'0 0.0
2018-Aug-11 17:30N 55°57' W 004°46'0 0.0
2018-Aug-11 17:00N 55°57' W 004°46'0 0.0
2018-Aug-11 16:30N 55°57' W 004°46'0 0.0
2018-Aug-11 16:01N 55°57' W 004°46'0 0.0
2018-Aug-11 15:28N 55°57' W 004°46'0 0.0
2018-Aug-11 15:00N 55°57' W 004°46'0 0.0
2018-Aug-11 14:29N 55°57' W 004°46'0 0.0
2018-Aug-11 13:59N 55°57' W 004°46'0 0.0
2018-Aug-11 13:29N 55°57' W 004°46'0 0.0
2018-Aug-11 12:57N 55°57' W 004°46'0 0.0
2018-Aug-11 12:30N 55°57' W 004°46'0 0.0
2018-Aug-11 12:00N 55°57' W 004°46'0 0.0
2018-Aug-11 11:28N 55°57' W 004°46'0 0.0
2018-Aug-11 10:58N 55°57' W 004°46'0 0.0
2018-Aug-11 10:31N 55°57' W 004°46'0 0.0
2018-Aug-11 10:00N 55°57' W 004°46'0 0.0
2018-Aug-11 09:30N 55°57' W 004°46'0 0.0
2018-Aug-11 09:00N 55°57' W 004°46'0 0.0
2018-Aug-11 08:30N 55°57' W 004°46'0 0.0
2018-Aug-11 08:00N 55°57' W 004°46'0 0.0
2018-Aug-11 07:30N 55°57' W 004°46'0 0.0
2018-Aug-11 07:00N 55°57' W 004°46'0 0.0
2018-Aug-11 06:30N 55°57' W 004°46'0 0.0
2018-Aug-11 06:00N 55°57' W 004°46'0 0.6
2018-Aug-11 05:30N 55°58' W 004°46'4 8.2
2018-Aug-11 05:00N 55°57' W 004°53'714.2
2018-Aug-11 04:29N 55°50' W 004°57'713.8
2018-Aug-11 04:00N 55°43' W 004°59'912.6
2018-Aug-11 03:16N 55°34' W 004°59'1012.7
2018-Aug-11 02:28N 55°24' W 005°02'613.1
2018-Aug-11 01:59N 55°20' W 005°10'913.4
2018-Aug-11 01:20N 55°14' W 005°21'410.7
2018-Aug-11 00:57N 55°12' W 005°28'4 9.6
2018-Aug-11 00:30N 55°10' W 005°34'510.2
2018-Aug-11 00:00N 55°05' W 005°39'611.4
2018-Aug-10 23:30N 55°00' W 005°34'611.8
2018-Aug-10 23:00N 54°57' W 005°25'3 6.3
2018-Aug-10 22:28N 54°54' W 005°23'4 9.2
2018-Aug-10 22:00N 54°51' W 005°28'510.2
2018-Aug-10 21:30N 54°47' W 005°33'510.3
2018-Aug-10 21:00N 54°43' W 005°39'5 9.6
2018-Aug-10 20:30N 54°41' W 005°47'5 9.9
2018-Aug-10 19:59N 54°38' W 005°53'1 1.9
2018-Aug-10 19:30N 54°37' W 005°54'0 0.0
2018-Aug-10 18:59N 54°37' W 005°54'0 0.0
2018-Aug-10 18:29N 54°37' W 005°54'0 0.0
2018-Aug-10 17:52N 54°37' W 005°54'0 0.0
2018-Aug-10 17:29N 54°37' W 005°54'0 0.0
2018-Aug-10 16:59N 54°37' W 005°54'0 0.0
2018-Aug-10 16:28N 54°37' W 005°54'0 0.0
2018-Aug-10 16:00N 54°37' W 005°54'0 0.0
2018-Aug-10 15:27N 54°37' W 005°54'0 0.0
2018-Aug-10 15:00N 54°37' W 005°54'0 0.0
2018-Aug-10 14:29N 54°37' W 005°54'0 0.0
2018-Aug-10 13:59N 54°37' W 005°54'0 0.0
2018-Aug-10 13:30N 54°37' W 005°54'0 0.0
2018-Aug-10 13:00N 54°37' W 005°54'0 0.0
2018-Aug-10 12:28N 54°37' W 005°54'0 0.0
2018-Aug-10 12:00N 54°37' W 005°54'0 0.0
2018-Aug-10 11:29N 54°37' W 005°54'0 0.0
2018-Aug-10 10:59N 54°37' W 005°54'0 0.0
2018-Aug-10 10:25N 54°37' W 005°54'0 0.0
2018-Aug-10 09:58N 54°37' W 005°54'0 0.0
2018-Aug-10 09:28N 54°37' W 005°54'0 0.0
2018-Aug-10 09:00N 54°37' W 005°54'0 0.0
2018-Aug-10 08:30N 54°37' W 005°54'0 0.2
2018-Aug-10 08:00N 54°37' W 005°54'1 1.4
2018-Aug-10 07:28N 54°38' W 005°53'4 7.8
2018-Aug-10 07:00N 54°40' W 005°50'5 9.1
2018-Aug-10 06:31N 54°43' W 005°43'510.9
2018-Aug-10 06:00N 54°44' W 005°33'611.3
2018-Aug-10 05:30N 54°42' W 005°24'611.8
2018-Aug-10 05:01N 54°37' W 005°19'612.8
2018-Aug-10 04:30N 54°31' W 005°15'712.6
2018-Aug-10 03:59N 54°25' W 005°11'612.7
2018-Aug-10 03:29N 54°18' W 005°08'612.2
2018-Aug-10 03:00N 54°13' W 005°09'6011.9
2018-Aug-09 21:57N 53°35' W 003°50'715.3
2018-Aug-09 21:30N 53°34' W 003°38'714.3
2018-Aug-09 21:00N 53°33' W 003°26'611.5
2018-Aug-09 20:30N 53°32' W 003°17'510.0
2018-Aug-09 20:00N 53°32' W 003°08'612.6
2018-Aug-09 19:29N 53°27' W 003°01'2 4.8
2018-Aug-09 19:00N 53°25' W 003°00'0 0.0
2018-Aug-09 18:30N 53°25' W 003°00'0 0.0
2018-Aug-09 17:57N 53°25' W 003°00'0 0.0
2018-Aug-09 17:30N 53°25' W 003°00'0 0.0
2018-Aug-09 17:00N 53°25' W 003°00'0 0.0
2018-Aug-09 16:30N 53°25' W 003°00'0 0.0
2018-Aug-09 16:00N 53°25' W 003°00'0 0.0
2018-Aug-09 15:30N 53°25' W 003°00'0 0.0
2018-Aug-09 14:51N 53°25' W 003°00'0 0.0
2018-Aug-09 14:30N 53°25' W 003°00'0 0.0
2018-Aug-09 13:59N 53°25' W 003°00'0 0.0
2018-Aug-09 13:30N 53°25' W 003°00'0 0.0
2018-Aug-09 13:00N 53°25' W 003°00'0 0.0
2018-Aug-09 12:27N 53°25' W 003°00'0 0.0
2018-Aug-09 12:00N 53°25' W 003°00'0 0.0
2018-Aug-09 11:29N 53°25' W 003°00'0 0.0
2018-Aug-09 10:56N 53°25' W 003°00'0 0.0
2018-Aug-09 10:30N 53°25' W 003°00'0 0.0
2018-Aug-09 09:59N 53°25' W 003°00'0 0.0
2018-Aug-09 09:21N 53°25' W 003°00'0 0.0
2018-Aug-09 08:59N 53°25' W 003°00'0 0.0
2018-Aug-09 08:29N 53°25' W 003°00'0 0.0
2018-Aug-09 07:56N 53°25' W 003°00'0 0.0
2018-Aug-09 07:23N 53°25' W 003°00'0 0.0
2018-Aug-09 07:00N 53°25' W 003°00'0 0.0
2018-Aug-09 06:20N 53°25' W 003°00'0 0.2
2018-Aug-09 06:00N 53°25' W 003°00'2 3.3
2018-Aug-09 05:30N 53°26' W 003°01'611.2
2018-Aug-09 05:00N 53°31' W 003°06'4 8.6
2018-Aug-09 04:30N 53°31' W 003°13'4 8.4
2018-Aug-09 04:00N 53°31' W 003°20'4 8.1
2018-Aug-09 03:30N 53°31' W 003°27'510.4
2018-Aug-09 03:00N 53°30' W 003°36'510.3
2018-Aug-09 02:30N 53°31' W 003°44'714.7
2018-Aug-09 02:00N 53°31' W 003°57'7417.4
2018-Aug-08 21:45N 53°21' W 006°00'410.8
2018-Aug-08 21:24N 53°20' W 006°06'4 9.0
2018-Aug-08 21:00N 53°21' W 006°12'13 1.0
2018-Aug-08 07:50N 53°23' W 005°52'25 9.4
2018-Aug-08 05:09N 53°01' W 005°33'214.1
2018-Aug-08 05:00N 52°58' W 005°34'714.5
2018-Aug-08 04:30N 52°52' W 005°36'714.5
2018-Aug-08 04:00N 52°44' W 005°39'1014.1
2018-Aug-08 03:16N 52°34' W 005°42'513.7
2018-Aug-08 02:56N 52°30' W 005°43'713.6
2018-Aug-08 02:26N 52°23' W 005°45'813.6
2018-Aug-08 01:53N 52°16' W 005°47'615.2
2018-Aug-08 01:30N 52°10' W 005°49'815.6
2018-Aug-08 00:57N 52°03' W 005°56'715.0
2018-Aug-08 00:30N 51°57' W 006°03'815.3
2018-Aug-08 00:00N 51°55' W 006°15'815.3
2018-Aug-07 23:30N 51°52' W 006°26'815.6
2018-Aug-07 23:00N 51°50' W 006°38'815.9
2018-Aug-07 22:30N 51°48' W 006°51'815.7
2018-Aug-07 22:00N 51°46' W 007°03'816.3
2018-Aug-07 21:30N 51°45' W 007°16'816.2
2018-Aug-07 21:00N 51°44' W 007°29'816.1
2018-Aug-07 20:30N 51°43' W 007°42'816.3
2018-Aug-07 20:00N 51°41' W 007°55'816.3
2018-Aug-07 19:30N 51°40' W 008°08'714.4
2018-Aug-07 19:00N 51°46' W 008°15'510.0
2018-Aug-07 18:31N 51°51' W 008°16'1 2.5
2018-Aug-07 17:59N 51°51' W 008°18'0 0.0
2018-Aug-07 17:29N 51°51' W 008°18'0 0.0
2018-Aug-07 16:59N 51°51' W 008°18'0 0.0
2018-Aug-07 16:29N 51°51' W 008°18'0 0.0
2018-Aug-07 15:59N 51°51' W 008°18'0 0.0
2018-Aug-07 15:31N 51°51' W 008°18'0 0.0
2018-Aug-07 14:58N 51°51' W 008°18'0 0.0
2018-Aug-07 14:30N 51°51' W 008°18'0 0.0
2018-Aug-07 14:00N 51°51' W 008°18'0 0.0
2018-Aug-07 13:29N 51°51' W 008°18'0 0.0
2018-Aug-07 12:59N 51°51' W 008°18'0 0.0
2018-Aug-07 12:29N 51°51' W 008°18'0 0.0
2018-Aug-07 11:57N 51°51' W 008°18'0 0.0
2018-Aug-07 11:28N 51°51' W 008°18'0 0.0
2018-Aug-07 11:00N 51°51' W 008°18'0 0.0
2018-Aug-07 10:30N 51°51' W 008°18'0 0.0
2018-Aug-07 10:00N 51°51' W 008°18'0 0.0
2018-Aug-07 09:30N 51°51' W 008°18'0 0.0
2018-Aug-07 08:58N 51°51' W 008°18'0 0.0
2018-Aug-07 08:30N 51°51' W 008°18'0 0.0
2018-Aug-07 08:00N 51°51' W 008°18'0 0.6
2018-Aug-07 07:30N 51°51' W 008°18'2 3.6
2018-Aug-07 07:00N 51°50' W 008°16'611.8
2018-Aug-07 06:30N 51°44' W 008°15'815.0
2018-Aug-07 06:00N 51°38' W 008°06'816.8
2018-Aug-07 05:30N 51°33' W 007°56'816.7
2018-Aug-07 05:00N 51°27' W 007°46'916.9
2018-Aug-07 04:30N 51°21' W 007°36'9319.8
2018-Aug-06 23:48N 50°14' W 005°55'721.5
2018-Aug-06 23:30N 50°07' W 005°55'1120.0
2018-Aug-06 22:56N 49°56' W 005°51'920.6
2018-Aug-06 22:28N 49°52' W 005°38'1320.8
2018-Aug-06 21:51N 49°49' W 005°19'820.3
2018-Aug-06 21:28N 49°46' W 005°07'920.2
2018-Aug-06 21:00N 49°44' W 004°53'1020.2
2018-Aug-06 20:31N 49°42' W 004°38'1020.1
2018-Aug-06 20:00N 49°39' W 004°23'1020.4
2018-Aug-06 19:30N 49°37' W 004°08'1020.7
2018-Aug-06 19:00N 49°35' W 003°52'1121.0
2018-Aug-06 18:30N 49°32' W 003°36'1020.9
2018-Aug-06 18:00N 49°30' W 003°21'1021.0
2018-Aug-06 17:30N 49°27' W 003°05'1020.8
2018-Aug-06 17:01N 49°25' W 002°50'1020.4
2018-Aug-06 16:30N 49°24' W 002°34'5 9.5
2018-Aug-06 16:00N 49°28' W 002°30'0 0.3
2018-Aug-06 15:28N 49°28' W 002°30'0 0.0
2018-Aug-06 15:00N 49°28' W 002°30'0 0.0
2018-Aug-06 14:30N 49°28' W 002°30'0 0.0
2018-Aug-06 13:59N 49°28' W 002°30'0 0.0
2018-Aug-06 13:30N 49°28' W 002°30'0 0.0
2018-Aug-06 13:00N 49°28' W 002°30'0 0.0
2018-Aug-06 12:30N 49°28' W 002°30'0 0.0
2018-Aug-06 12:00N 49°28' W 002°30'0 0.1
2018-Aug-06 11:30N 49°28' W 002°30'0 0.0
2018-Aug-06 11:00N 49°28' W 002°30'0 0.0
2018-Aug-06 10:30N 49°28' W 002°30'0 0.1
2018-Aug-06 10:00N 49°28' W 002°30'0 0.0
2018-Aug-06 09:30N 49°28' W 002°30'0 0.0
2018-Aug-06 09:00N 49°28' W 002°30'0 0.1
2018-Aug-06 08:30N 49°28' W 002°30'  

Dump ship's entire track history